Terminal Aerodrome Forecast
Issued by NWS

Home | Current Version | Previous Version | Text Only | Print | Product List | Glossary On
Versions: 1 2 3 4 5 6 7 8 9 10 11 12 13 14 15 16 17 18 19
625
FTUS43 KICT 302320
TAFHUT
TAF
KHUT 302320Z 0100/0124 32015G24KT P6SM -RA OVC015
     FM010100 31018G28KT P6SM VCSH OVC015
     FM011300 29015KT P6SM BKN050
     FM011500 29018G26KT P6SM SCT250=

USA.gov is the U.S. government's official web portal to all federal, state and local government web resources and services.